createdAt,value
2022-12-01T02:05:33.000Z,75.35
2022-12-01T02:08:18.075Z,74.38
2022-12-01T02:11:23.726Z,65.43
2022-12-01T02:14:37.242Z,67.95
2022-12-01T02:17:27.502Z,70.82
2022-12-01T02:20:32.619Z,65.38
2022-12-01T02:23:35.843Z,67.07
2022-12-01T02:26:22.903Z,70.87
2022-12-01T02:29:02.911Z,64.18
2022-12-01T02:31:47.372Z,69.97
2022-12-01T02:34:54.391Z,58.38
2022-12-01T02:44:25.605Z,67.07
2022-12-01T02:47:59.890Z,65.75
2022-12-01T02:50:37.694Z,65.35
2022-12-01T02:56:25.880Z,66.07
2022-12-01T02:59:05.341Z,62.72
2022-12-01T03:02:13.035Z,56.28
2022-12-01T03:08:29.816Z,59.22
2022-12-01T03:11:10.172Z,64.00
2022-12-01T03:14:06.181Z,69.50
2022-12-01T03:17:13.628Z,71.10
2022-12-01T03:20:07.412Z,62.83
2022-12-01T03:23:04.155Z,65.07
2022-12-01T03:26:12.861Z,66.00
2022-12-01T03:28:53.882Z,60.67
2022-12-01T03:31:53.854Z,70.25
2022-12-01T03:35:10.284Z,66.65
2022-12-01T03:38:07.317Z,66.63
2022-12-01T03:41:05.163Z,62.07
2022-12-01T03:43:51.494Z,64.90
2022-12-01T03:47:07.822Z,66.63
2022-12-01T03:50:09.627Z,72.07
2022-12-01T03:53:37.108Z,69.55
2022-12-01T03:56:24.360Z,65.73
2022-12-01T03:59:07.283Z,70.72
2022-12-01T04:05:36.303Z,67.47
2022-12-01T04:08:34.326Z,66.18
2022-12-01T04:11:37.863Z,67.20
2022-12-01T04:14:41.402Z,75.47
2022-12-01T04:20:16.638Z,73.45
2022-12-01T04:22:55.907Z,75.35
2022-12-01T04:28:31.933Z,72.18
2022-12-01T04:31:19.780Z,67.10
2022-12-01T04:34:03.146Z,72.30
2022-12-01T04:36:58.170Z,67.43
2022-12-01T04:39:45.630Z,75.50
2022-12-01T04:42:34.068Z,75.40
2022-12-01T04:45:20.368Z,71.53
2022-12-01T04:47:58.684Z,74.10
2022-12-01T04:50:51.692Z,70.32
2022-12-01T04:56:43.355Z,69.78
2022-12-01T04:59:26.760Z,73.32
2022-12-01T05:02:09.456Z,73.30
2022-12-01T05:08:30.253Z,75.67
2022-12-01T05:11:14.123Z,73.60
2022-12-01T05:16:55.343Z,72.53
2022-12-01T05:19:42.986Z,71.35
2022-12-01T05:23:04.412Z,69.30
2022-12-01T05:25:41.759Z,70.95
2022-12-01T05:28:11.902Z,79.97
2022-12-01T05:31:13.370Z,79.85
2022-12-01T05:34:06.720Z,71.63
2022-12-01T05:36:36.013Z,75.33
2022-12-01T05:39:04.387Z,75.30
2022-12-01T05:41:32.985Z,78.30
2022-12-01T05:47:13.854Z,78.40
2022-12-01T05:50:06.249Z,71.63
2022-12-01T05:52:37.418Z,73.55
2022-12-01T05:55:20.292Z,76.28
2022-12-01T05:58:22.007Z,79.22
2022-12-01T06:07:35.039Z,87.40
2022-12-01T06:13:08.532Z,95.05
2022-12-01T06:15:35.364Z,78.05
2022-12-01T06:18:02.254Z,86.27
2022-12-01T06:20:29.004Z,90.40
2022-12-01T06:22:55.854Z,98.38
2022-12-01T06:25:22.612Z,91.68
2022-12-01T06:27:49.812Z,88.57
2022-12-01T06:30:16.908Z,83.80
2022-12-01T06:32:43.889Z,85.88
2022-12-01T06:35:10.794Z,90.50
2022-12-01T06:37:37.679Z,82.95
2022-12-01T06:40:05.273Z,101.65
2022-12-01T06:42:32.564Z,86.10
2022-12-01T06:45:01.282Z,87.00
2022-12-01T06:47:31.111Z,104.85
2022-12-01T06:49:58.108Z,82.13
2022-12-01T06:52:26.270Z,89.60
2022-12-01T06:54:53.137Z,89.67
2022-12-01T06:57:20.512Z,89.80
2022-12-01T06:59:48.453Z,93.35
2022-12-01T07:02:18.616Z,102.85
2022-12-01T07:04:45.484Z,91.68
2022-12-01T07:07:12.835Z,97.43
2022-12-01T07:09:40.030Z,101.63
2022-12-01T07:12:07.150Z,97.80
2022-12-01T07:14:34.197Z,100.22
2022-12-01T07:17:01.024Z,100.00
2022-12-01T07:19:27.929Z,97.93
2022-12-01T07:21:54.762Z,97.57
2022-12-01T07:24:21.565Z,96.32
2022-12-01T07:26:48.380Z,103.18
2022-12-01T07:29:15.465Z,103.43
2022-12-01T07:31:42.378Z,90.93
2022-12-01T07:34:12.142Z,100.30
2022-12-01T07:36:39.387Z,94.70
2022-12-01T07:39:07.920Z,93.07
2022-12-01T07:41:35.612Z,95.85
2022-12-01T07:44:02.955Z,113.37
2022-12-01T07:46:30.231Z,113.95
2022-12-01T07:48:57.596Z,106.28
2022-12-01T07:51:26.295Z,91.10
2022-12-01T07:53:54.319Z,100.60
2022-12-01T07:56:22.718Z,97.43
2022-12-01T07:58:49.858Z,104.63
2022-12-01T08:01:19.474Z,102.55
2022-12-01T08:03:52.355Z,98.50
2022-12-01T08:06:20.437Z,101.63
2022-12-01T08:08:47.698Z,106.67
2022-12-01T08:11:17.481Z,99.70
2022-12-01T08:13:44.905Z,105.03
2022-12-01T08:16:18.728Z,98.82
2022-12-01T08:18:46.029Z,106.57
2022-12-01T08:21:15.361Z,100.13
2022-12-01T08:23:42.784Z,100.03
2022-12-01T08:26:13.962Z,101.90
2022-12-01T08:28:41.446Z,102.38
2022-12-01T08:31:26.893Z,95.85
2022-12-01T08:33:54.181Z,105.67
2022-12-01T08:36:22.234Z,109.13
2022-12-01T08:38:52.009Z,109.50
2022-12-01T08:41:19.847Z,109.60
2022-12-01T08:43:57.956Z,98.57
2022-12-01T08:46:28.333Z,109.23
2022-12-01T08:48:57.627Z,104.50
2022-12-01T08:51:25.708Z,114.35
2022-12-01T08:53:52.882Z,99.70
2022-12-01T08:56:28.560Z,106.88
2022-12-01T08:58:55.818Z,100.40
2022-12-01T09:01:23.438Z,105.57
2022-12-01T09:04:06.472Z,113.22
2022-12-01T09:06:39.251Z,83.57
2022-12-01T09:09:06.864Z,91.53
2022-12-01T09:11:33.659Z,97.37
2022-12-01T09:14:01.054Z,91.70
2022-12-01T09:16:28.398Z,86.03
2022-12-01T09:18:56.205Z,92.90
2022-12-01T09:21:26.260Z,89.57
2022-12-01T09:23:53.805Z,92.20
2022-12-01T09:26:21.281Z,89.35
2022-12-01T09:28:50.426Z,93.75
2022-12-01T09:31:18.567Z,95.22
2022-12-01T09:33:45.653Z,94.32
2022-12-01T09:36:12.927Z,95.57
2022-12-01T09:38:40.294Z,97.25
2022-12-01T09:41:21.552Z,103.72
2022-12-01T09:43:58.869Z,96.97
2022-12-01T09:46:32.096Z,86.32
2022-12-01T09:49:01.707Z,101.43
2022-12-01T09:51:31.581Z,102.10
2022-12-01T09:53:59.795Z,92.25
2022-12-01T09:56:32.565Z,93.07
2022-12-01T09:59:05.518Z,90.03
2022-12-01T10:01:41.738Z,91.53
2022-12-01T10:04:20.850Z,88.18
2022-12-01T10:06:59.276Z,93.75
2022-12-01T10:09:32.513Z,94.10
2022-12-01T10:12:09.260Z,91.90
2022-12-01T10:14:39.869Z,87.10
2022-12-01T10:17:42.710Z,98.10
2022-12-01T10:20:34.274Z,93.22
2022-12-01T10:23:04.347Z,82.72
2022-12-01T10:25:58.861Z,88.60
2022-12-01T10:28:58.122Z,92.47
2022-12-01T10:31:39.654Z,93.22
2022-12-01T10:34:10.242Z,89.75
2022-12-01T10:36:37.148Z,87.70
2022-12-01T10:39:12.039Z,95.53
2022-12-01T10:41:40.158Z,92.30
2022-12-01T10:44:08.671Z,85.63
2022-12-01T10:46:43.509Z,89.75
2022-12-01T10:49:13.107Z,79.32
2022-12-01T10:51:55.258Z,88.82
2022-12-01T10:54:24.064Z,87.73
2022-12-01T10:56:57.171Z,93.70
2022-12-01T10:59:34.912Z,80.88
2022-12-01T11:02:02.901Z,80.68
2022-12-01T11:04:46.449Z,81.05
2022-12-01T11:07:24.767Z,87.30
2022-12-01T11:10:15.184Z,77.35
2022-12-01T11:12:45.500Z,82.18
2022-12-01T11:15:27.126Z,79.00
2022-12-01T11:17:59.916Z,86.60
2022-12-01T11:20:33.523Z,77.87
2022-12-01T11:23:20.635Z,78.82
2022-12-01T11:26:15.627Z,75.03
2022-12-01T11:29:25.289Z,72.18
2022-12-01T11:31:55.757Z,71.03
2022-12-01T11:34:27.737Z,65.27
2022-12-01T11:37:18.693Z,77.20
2022-12-01T11:39:48.585Z,76.95
2022-12-01T11:42:25.487Z,80.15
2022-12-01T11:45:03.033Z,70.07
2022-12-01T11:47:43.585Z,71.17
2022-12-01T11:50:30.333Z,66.38
2022-12-01T11:52:57.773Z,75.43
2022-12-01T11:55:27.131Z,67.13
2022-12-01T11:57:57.679Z,67.78
2022-12-01T12:00:30.546Z,72.13
2022-12-01T12:03:04.855Z,73.93
2022-12-01T12:05:45.445Z,76.60
2022-12-01T12:08:35.955Z,73.60
2022-12-01T12:11:24.725Z,79.13
2022-12-01T12:14:29.354Z,70.87
2022-12-01T12:17:26.828Z,69.13
2022-12-01T12:20:13.081Z,67.43
2022-12-01T12:22:59.681Z,70.30
2022-12-01T12:25:57.913Z,62.53
2022-12-01T12:28:48.621Z,63.30
2022-12-01T12:31:24.447Z,67.65
2022-12-01T12:33:54.092Z,66.18
2022-12-01T12:36:26.941Z,64.03
2022-12-01T12:39:02.632Z,71.97
2022-12-01T12:41:46.919Z,67.80
2022-12-01T12:44:36.766Z,70.78
2022-12-01T12:47:27.613Z,63.80
2022-12-01T12:50:11.080Z,61.85
2022-12-01T12:52:42.905Z,61.15
2022-12-01T12:55:21.321Z,59.33
2022-12-01T12:57:54.116Z,60.78
2022-12-01T13:00:26.484Z,58.15
2022-12-01T13:03:18.842Z,57.90
2022-12-01T13:05:53.994Z,62.00
2022-12-01T13:08:26.804Z,51.20
2022-12-01T13:11:04.544Z,61.35
2022-12-01T13:13:56.363Z,60.40
2022-12-01T13:16:37.366Z,55.30
2022-12-01T13:19:19.913Z,54.28
2022-12-01T13:21:50.000Z,57.40
2022-12-01T13:24:23.271Z,63.13
2022-12-01T13:27:10.985Z,56.80
2022-12-01T13:29:43.843Z,55.90
2022-12-01T13:32:31.985Z,54.92
2022-12-01T13:35:00.774Z,47.93
2022-12-01T13:37:33.549Z,58.55
2022-12-01T13:40:33.018Z,65.10
2022-12-01T13:43:15.528Z,55.40
2022-12-01T13:45:43.888Z,55.58
2022-12-01T13:48:46.409Z,52.77
2022-12-01T13:51:13.479Z,55.72
2022-12-01T13:54:16.378Z,55.10
2022-12-01T13:57:05.076Z,53.15
2022-12-01T13:59:58.191Z,56.83
2022-12-01T14:02:28.822Z,50.73
2022-12-01T14:05:15.678Z,54.80
2022-12-01T14:07:43.736Z,56.63
2022-12-01T14:10:25.126Z,57.50
2022-12-01T14:12:54.199Z,59.25
2022-12-01T14:15:23.637Z,55.63
2022-12-01T14:18:04.137Z,66.03
2022-12-01T14:20:35.141Z,57.65
2022-12-01T14:23:17.047Z,58.05
2022-12-01T14:26:16.449Z,65.10
2022-12-01T14:28:55.583Z,72.77
2022-12-01T14:31:24.315Z,53.63
2022-12-01T14:34:00.031Z,57.00
2022-12-01T14:36:36.704Z,51.55
2022-12-01T14:39:26.177Z,64.35
2022-12-01T14:41:57.238Z,54.17
2022-12-01T14:44:27.663Z,55.53
2022-12-01T14:47:27.670Z,57.30
2022-12-01T14:50:13.983Z,53.25
2022-12-01T14:52:51.381Z,58.90
2022-12-01T14:55:25.179Z,52.93
2022-12-01T14:58:06.286Z,57.08
2022-12-01T15:00:37.550Z,58.20
2022-12-01T15:03:12.850Z,49.25
2022-12-01T15:05:42.383Z,50.17
2022-12-01T15:08:42.017Z,59.77
2022-12-01T15:11:25.806Z,61.65
2022-12-01T15:13:57.498Z,52.90
2022-12-01T15:16:28.468Z,56.75
2022-12-01T15:18:55.962Z,54.70
2022-12-01T15:21:25.097Z,52.20
2022-12-01T15:24:21.818Z,51.80
2022-12-01T15:27:03.265Z,55.92
2022-12-01T15:29:45.682Z,56.20
2022-12-01T15:32:16.807Z,57.30
2022-12-01T15:34:46.031Z,53.53
2022-12-01T15:37:21.738Z,56.53
2022-12-01T15:43:22.025Z,48.17
2022-12-01T15:46:19.589Z,64.30
2022-12-01T15:48:46.785Z,55.27
2022-12-01T15:51:27.863Z,48.47
2022-12-01T15:53:59.130Z,52.15
2022-12-01T15:56:36.120Z,64.20
2022-12-01T15:59:07.542Z,65.13
2022-12-01T16:01:36.217Z,59.63
2022-12-01T16:04:26.744Z,62.85
2022-12-01T16:07:04.787Z,59.53
2022-12-01T16:09:38.467Z,56.30
2022-12-01T16:12:22.947Z,58.78
2022-12-01T16:14:54.522Z,59.13
2022-12-01T16:17:23.305Z,61.80
2022-12-01T16:20:26.884Z,56.90
2022-12-01T16:23:11.233Z,54.70
2022-12-01T16:25:43.626Z,67.88
2022-12-01T16:28:25.815Z,57.83
2022-12-01T16:31:04.844Z,63.80
2022-12-01T16:33:37.418Z,62.53
2022-12-01T16:36:04.492Z,55.42
2022-12-01T16:38:31.390Z,72.90
2022-12-01T16:41:02.466Z,63.47
2022-12-01T16:43:32.753Z,54.03
2022-12-01T16:46:23.093Z,60.33
2022-12-01T16:49:04.893Z,60.47
2022-12-01T16:51:54.162Z,59.03
2022-12-01T16:54:18.628Z,54.53
2022-12-01T16:56:45.463Z,60.70
2022-12-01T16:59:12.437Z,56.22
2022-12-01T17:01:39.339Z,62.22
2022-12-01T17:04:07.739Z,61.67
2022-12-01T17:06:38.458Z,62.07
2022-12-01T17:09:06.086Z,66.28
2022-12-01T17:11:33.217Z,65.50
2022-12-01T17:14:00.111Z,69.28
2022-12-01T17:16:27.313Z,62.50
2022-12-01T17:18:54.183Z,63.27
2022-12-01T17:21:20.972Z,62.72
2022-12-01T17:23:48.056Z,65.25
2022-12-01T17:26:17.048Z,67.90
2022-12-01T17:28:43.931Z,64.10
2022-12-01T17:31:11.147Z,69.27
2022-12-01T17:33:38.307Z,69.22
2022-12-01T17:36:11.270Z,67.50
2022-12-01T17:38:40.689Z,67.75
2022-12-01T17:41:14.429Z,66.78
2022-12-01T17:43:45.572Z,64.73
2022-12-01T17:46:13.397Z,64.30
2022-12-01T17:48:46.350Z,61.60
2022-12-01T17:51:14.464Z,61.35
2022-12-01T17:53:44.671Z,62.65
2022-12-01T17:56:14.520Z,68.43
2022-12-01T17:58:45.096Z,64.75
2022-12-01T18:01:17.546Z,64.32
2022-12-01T18:03:45.202Z,67.13
2022-12-01T18:06:12.863Z,71.15
2022-12-01T18:08:41.213Z,64.87
2022-12-01T18:11:11.308Z,64.18
2022-12-01T18:13:39.659Z,70.10
2022-12-01T18:16:08.723Z,64.60
2022-12-01T18:18:38.326Z,68.53
2022-12-01T18:21:13.699Z,61.80
2022-12-01T18:23:41.582Z,62.45
2022-12-01T18:26:15.809Z,62.63
2022-12-01T18:28:45.188Z,60.85
2022-12-01T18:31:15.027Z,64.70
2022-12-01T18:33:46.498Z,63.27
2022-12-01T18:36:17.257Z,59.03
2022-12-01T18:38:45.795Z,63.97
2022-12-01T18:41:14.084Z,60.35
2022-12-01T18:43:41.715Z,59.25
2022-12-01T18:46:10.088Z,58.87
2022-12-01T18:48:38.438Z,64.72
2022-12-01T18:51:07.780Z,64.38
2022-12-01T18:53:35.250Z,63.78
2022-12-01T18:56:05.038Z,59.35
2022-12-01T18:58:32.987Z,54.83
2022-12-01T19:01:16.601Z,69.70
2022-12-01T19:03:43.646Z,65.30
2022-12-01T19:06:13.096Z,63.10
2022-12-01T19:08:41.717Z,70.32
2022-12-01T19:11:08.923Z,62.03
2022-12-01T19:13:37.198Z,60.78
2022-12-01T19:16:18.611Z,73.65
2022-12-01T19:18:46.345Z,64.05
2022-12-01T19:21:16.266Z,61.13
2022-12-01T19:23:43.999Z,66.47
2022-12-01T19:26:15.121Z,68.38
2022-12-01T19:28:45.486Z,68.75
2022-12-01T19:31:38.712Z,59.92
2022-12-01T19:34:16.559Z,72.28
2022-12-01T19:36:43.628Z,74.97
2022-12-01T19:39:11.375Z,67.68
2022-12-01T19:41:38.815Z,70.95
2022-12-01T19:44:11.309Z,72.32
2022-12-01T19:46:38.473Z,69.25
2022-12-01T19:49:06.950Z,69.67
2022-12-01T19:51:35.792Z,62.90
2022-12-01T19:54:05.639Z,68.95
2022-12-01T19:56:32.970Z,62.83
2022-12-01T19:59:03.136Z,75.75
2022-12-01T20:01:30.623Z,72.60
2022-12-01T20:03:57.803Z,66.28
2022-12-01T20:06:27.445Z,69.95
2022-12-01T20:08:56.925Z,67.22
2022-12-01T20:11:25.040Z,74.32
2022-12-01T20:13:52.701Z,77.53
2022-12-01T20:16:27.685Z,82.10
2022-12-01T20:18:55.057Z,95.53
2022-12-01T20:21:35.132Z,83.97
2022-12-01T20:24:07.445Z,74.03
2022-12-01T20:26:57.187Z,74.63
2022-12-01T20:29:29.704Z,73.82
2022-12-01T20:31:59.264Z,76.65
2022-12-01T20:34:29.785Z,79.88
2022-12-01T20:36:56.888Z,81.35
2022-12-01T20:39:24.755Z,75.03
2022-12-01T20:41:52.080Z,73.97
2022-12-01T20:44:28.520Z,73.15
2022-12-01T20:46:55.775Z,77.93
2022-12-01T20:49:22.868Z,77.40
2022-12-01T20:51:50.001Z,69.37
2022-12-01T20:54:27.967Z,79.30
2022-12-01T20:56:56.130Z,73.15
2022-12-01T20:59:23.180Z,69.40
2022-12-01T21:01:50.119Z,68.10
2022-12-01T21:04:17.753Z,76.13
2022-12-01T21:06:44.769Z,69.68
2022-12-01T21:09:13.148Z,71.88
2022-12-01T21:12:08.359Z,66.32
2022-12-01T21:15:22.304Z,75.72
2022-12-01T21:17:56.473Z,69.20
2022-12-01T21:20:40.249Z,78.47
2022-12-01T21:23:17.291Z,74.65
2022-12-01T21:25:44.749Z,67.63
2022-12-01T21:28:19.816Z,71.20
2022-12-01T21:30:48.756Z,74.93
2022-12-01T21:33:31.288Z,68.00
2022-12-01T21:36:14.904Z,75.13
2022-12-01T21:38:46.305Z,78.70
2022-12-01T21:41:23.498Z,70.75
2022-12-01T21:43:53.893Z,75.40
2022-12-01T21:46:27.271Z,80.78
2022-12-01T21:48:55.443Z,75.43
2022-12-01T21:51:24.332Z,74.18
2022-12-01T21:53:55.697Z,74.72
2022-12-01T21:56:26.929Z,70.20
2022-12-01T21:58:57.569Z,79.85
